Time;durP1;ratioP1;P1;durP2;ratioP2;P2;SDS_P1;SDS_P2;PMS_P1;PMS_P2;Temp;Humidity;BMP_temperature;BMP_pressure;BME280_temperature;BME280_humidity;BME280_pressure;Samples;Min_cycle;Max_cycle;Signal;HPM_P1;HPM_P2
2022/12/30 00:00:31;;;;;;;;;;;;;;;;;;5097417;28;19912;-67
2022/12/30 00:02:57;;;;;;;;;;;;;;;;;;5096158;28;19916;-67
2022/12/30 00:05:23;;;;;;;;;;;;;;;;;;5097063;28;19912;-67
2022/12/30 00:07:48;;;;;;;;;;;;;;;;;;5097343;28;19908;-68
2022/12/30 00:10:14;;;;;;;;;;;;;;;;;;5097323;28;20006;-68
2022/12/30 00:34:57;;;;;;;;;;;;;;;;;;5096338;28;20067;-66
2022/12/30 00:37:23;;;;;;;;;;;;;;;;;;5096748;28;19912;-66
2022/12/30 00:39:49;;;;;;;;;;;;;;;;;;5095462;28;19908;-66
2022/12/30 00:45:00;;;;;;;;;;;;;;;;;;5096656;28;19915;-67
2022/12/30 00:47:26;;;;;;;;;;;;;;;;;;5094369;28;19908;-67
2022/12/30 00:58:05;;;;;;;;;;;;;;;;;;5096358;28;19966;-67
2022/12/30 01:00:31;;;;;;;;;;;;;;;;;;5095004;28;19914;-67
2022/12/30 01:02:57;;;;;;;;;;;;;;;;;;5095988;28;19947;-67
2022/12/30 01:05:23;;;;;;;;;;;;;;;;;;5094924;28;19912;-68
2022/12/30 01:07:49;;;;;;;;;;;;;;;;;;5096148;28;20292;-67
2022/12/30 01:10:15;;;;;;;;;;;;;;;;;;5094551;28;19916;-67
2022/12/30 01:12:41;;;;;;;;;;;;;;;;;;5096079;28;20368;-68
2022/12/30 01:15:07;;;;;;;;;;;;;;;;;;5095649;28;19920;-66
2022/12/30 01:17:33;;;;;;;;;;;;;;;;;;5096036;28;19912;-67
2022/12/30 01:19:59;;;;;;;;;;;;;;;;;;5095934;28;19908;-67
2022/12/30 01:22:25;;;;;;;;;;;;;;;;;;5095748;28;19914;-66
2022/12/30 01:24:52;;;;;;;;;;;;;;;;;;5095758;28;20380;-68
2022/12/30 01:27:17;;;;;;;;;;;;;;;;;;5095811;28;19908;-67
2022/12/30 01:29:43;;;;;;;;;;;;;;;;;;5095374;28;19999;-67
2022/12/30 01:32:09;;;;;;;;;;;;;;;;;;5094425;28;20346;-67
2022/12/30 01:34:35;;;;;;;;;;;;;;;;;;5095568;28;20253;-67
2022/12/30 01:37:01;;;;;;;;;;;;;;;;;;5095191;28;19908;-67
2022/12/30 01:39:27;;;;;;;;;;;;;;;;;;5095523;28;20053;-67
2022/12/30 01:41:53;;;;;;;;;;;;;;;;;;5095493;28;20070;-68
2022/12/30 01:44:19;;;;;;;;;;;;;;;;;;5095085;28;19930;-67
2022/12/30 01:46:45;;;;;;;;;;;;;;;;;;5095586;28;19951;-67
2022/12/30 01:49:11;;;;;;;;;;;;;;;;;;5095407;28;19908;-67
2022/12/30 01:51:37;;;;;;;;;;;;;;;;;;5094957;28;19919;-67
2022/12/30 01:54:03;;;;;;;;;;;;;;;;;;5093925;28;19919;-67
2022/12/30 01:56:29;;;;;;;;;;;;;;;;;;5095278;28;20280;-67
2022/12/30 01:58:55;;;;;;;;;;;;;;;;;;5092644;28;19953;-67
2022/12/30 02:01:21;;;;;;;;;;;;;;;;;;5095425;28;19909;-67
2022/12/30 02:03:47;;;;;;;;;;;;;;;;;;5094102;28;19935;-67
2022/12/30 02:06:13;;;;;;;;;;;;;;;;;;5093428;28;19916;-67
2022/12/30 02:08:39;;;;;;;;;;;;;;;;;;5093755;28;19908;-67
2022/12/30 02:11:05;;;;;;;;;;;;;;;;;;5093657;28;19951;-67
2022/12/30 02:13:31;;;;;;;;;;;;;;;;;;5093175;28;19908;-67
2022/12/30 02:15:57;;;;;;;;;;;;;;;;;;5093349;28;19973;-67
2022/12/30 02:18:23;;;;;;;;;;;;;;;;;;5094784;28;20042;-67
2022/12/30 02:20:49;;;;;;;;;;;;;;;;;;5093133;28;19954;-67
2022/12/30 02:23:15;;;;;;;;;;;;;;;;;;5094687;28;19908;-68
2022/12/30 02:25:41;;;;;;;;;;;;;;;;;;5092976;28;19908;-68
2022/12/30 02:28:07;;;;;;;;;;;;;;;;;;5093383;28;19908;-68
2022/12/30 02:30:33;;;;;;;;;;;;;;;;;;5094644;28;20325;-67
2022/12/30 02:32:58;;;;;;;;;;;;;;;;;;5092849;28;19912;-67
2022/12/30 02:35:25;;;;;;;;;;;;;;;;;;5094432;28;19923;-67
2022/12/30 02:37:51;;;;;;;;;;;;;;;;;;5094431;28;19908;-67
2022/12/30 02:40:17;;;;;;;;;;;;;;;;;;5094050;28;19908;-67
2022/12/30 02:45:27;;;;;;;;;;;;;;;;;;5094468;28;20418;-67
2022/12/30 02:47:53;;;;;;;;;;;;;;;;;;5093903;28;19912;-67
2022/12/30 02:53:04;;;;;;;;;;;;;;;;;;5094281;28;19961;-67
2022/12/30 02:55:30;;;;;;;;;;;;;;;;;;5092518;28;20327;-67
2022/12/30 02:57:56;;;;;;;;;;;;;;;;;;5092865;28;19915;-68
2022/12/30 03:05:51;;;;;;;;;;;;;;;;;;5094174;28;19955;-67
2022/12/30 03:08:17;;;;;;;;;;;;;;;;;;5093743;28;19908;-68
2022/12/30 03:13:27;;;;;;;;;;;;;;;;;;5094202;28;19915;-67
2022/12/30 03:15:53;;;;;;;;;;;;;;;;;;5093267;28;19927;-68
2022/12/30 03:18:19;;;;;;;;;;;;;;;;;;5093909;28;19916;-67
2022/12/30 03:20:45;;;;;;;;;;;;;;;;;;5093922;28;19908;-68
2022/12/30 03:28:41;;;;;;;;;;;;;;;;;;5094046;28;19931;-67
2022/12/30 03:31:07;;;;;;;;;;;;;;;;;;5093597;28;20349;-67
2022/12/30 03:33:33;;;;;;;;;;;;;;;;;;5093825;28;20392;-67
2022/12/30 03:35:59;;;;;;;;;;;;;;;;;;5092035;28;19916;-67
2022/12/30 03:38:25;;;;;;;;;;;;;;;;;;5093791;28;19994;-67
2022/12/30 03:40:50;;;;;;;;;;;;;;;;;;5093918;28;19915;-68
2022/12/30 03:43:16;;;;;;;;;;;;;;;;;;5093678;28;19996;-67
2022/12/30 03:45:42;;;;;;;;;;;;;;;;;;5094170;28;19908;-66
2022/12/30 03:48:08;;;;;;;;;;;;;;;;;;5092484;28;19908;-66
2022/12/30 03:50:34;;;;;;;;;;;;;;;;;;5093408;28;19956;-66
2022/12/30 03:53:00;;;;;;;;;;;;;;;;;;5093623;28;19912;-67
2022/12/30 03:55:26;;;;;;;;;;;;;;;;;;5093537;28;19916;-68
2022/12/30 03:57:52;;;;;;;;;;;;;;;;;;5093394;28;19909;-67
2022/12/30 04:00:18;;;;;;;;;;;;;;;;;;5092304;28;19954;-67
2022/12/30 04:02:44;;;;;;;;;;;;;;;;;;5093555;28;19962;-67
2022/12/30 04:05:10;;;;;;;;;;;;;;;;;;5093173;28;19954;-67
2022/12/30 04:07:36;;;;;;;;;;;;;;;;;;5093672;28;19908;-67
2022/12/30 04:10:01;;;;;;;;;;;;;;;;;;5093577;28;19939;-67
2022/12/30 04:12:27;;;;;;;;;;;;;;;;;;5093056;28;19909;-68
2022/12/30 04:14:53;;;;;;;;;;;;;;;;;;5093132;28;19977;-67
2022/12/30 04:17:19;;;;;;;;;;;;;;;;;;5093385;28;19909;-68
2022/12/30 04:19:45;;;;;;;;;;;;;;;;;;5093013;28;20067;-67
2022/12/30 04:22:11;;;;;;;;;;;;;;;;;;5094454;28;19909;-68
2022/12/30 04:24:37;;;;;;;;;;;;;;;;;;5097036;28;19908;-67
2022/12/30 04:27:03;;;;;;;;;;;;;;;;;;5095288;28;19961;-67
2022/12/30 04:29:29;;;;;;;;;;;;;;;;;;5095624;28;19915;-67
2022/12/30 04:31:55;;;;;;;;;;;;;;;;;;5096866;28;19915;-67
2022/12/30 04:34:21;;;;;;;;;;;;;;;;;;5095085;28;19915;-67
2022/12/30 04:36:47;;;;;;;;;;;;;;;;;;5095562;28;19958;-67
2022/12/30 04:39:13;;;;;;;;;;;;;;;;;;5096311;28;19908;-67
2022/12/30 04:41:38;;;;;;;;;;;;;;;;;;5096666;28;19923;-67
2022/12/30 04:44:06;;;;;;;;;;;;;;;;;;5096757;28;19915;-67
2022/12/30 04:46:31;;;;;;;;;;;;;;;;;;5094886;28;20003;-67
2022/12/30 04:48:57;;;;;;;;;;;;;;;;;;5095250;28;19951;-67
2022/12/30 04:51:23;;;;;;;;;;;;;;;;;;5096579;28;19912;-68
2022/12/30 04:53:49;;;;;;;;;;;;;;;;;;5096096;28;19912;-68
2022/12/30 04:56:15;;;;;;;;;;;;;;;;;;5095081;28;19931;-68
2022/12/30 04:58:41;;;;;;;;;;;;;;;;;;5096468;28;19915;-68
2022/12/30 05:01:07;;;;;;;;;;;;;;;;;;5094588;28;19908;-67
2022/12/30 05:03:33;;;;;;;;;;;;;;;;;;5096367;28;19954;-68
2022/12/30 05:05:59;;;;;;;;;;;;;;;;;;5094975;28;19915;-68
2022/12/30 05:08:25;;;;;;;;;;;;;;;;;;5094563;28;19908;-68
2022/12/30 05:10:51;;;;;;;;;;;;;;;;;;5096172;28;19999;-68
2022/12/30 05:13:17;;;;;;;;;;;;;;;;;;5086849;28;20254;-68
2022/12/30 05:15:43;;;;;;;;;;;;;;;;;;5090758;28;19924;-68
2022/12/30 05:18:08;;;;;;;;;;;;;;;;;;5095185;28;19908;-68
2022/12/30 05:20:34;;;;;;;;;;;;;;;;;;5095177;28;20307;-68
2022/12/30 05:23:00;;;;;;;;;;;;;;;;;;5093778;28;20365;-68
2022/12/30 05:28:11;;;;;;;;;;;;;;;;;;5094664;28;20318;-68
2022/12/30 05:30:37;;;;;;;;;;;;;;;;;;5093593;28;19916;-68
2022/12/30 05:33:03;;;;;;;;;;;;;;;;;;5093989;28;20417;-68
2022/12/30 05:35:29;;;;;;;;;;;;;;;;;;5091914;28;19958;-68
2022/12/30 05:37:54;;;;;;;;;;;;;;;;;;5093891;28;19908;-68
2022/12/30 05:40:20;;;;;;;;;;;;;;;;;;5093838;28;19908;-68
2022/12/30 05:42:46;;;;;;;;;;;;;;;;;;5093701;28;20003;-68
2022/12/30 05:45:12;;;;;;;;;;;;;;;;;;5093757;28;19908;-68
2022/12/30 05:47:38;;;;;;;;;;;;;;;;;;5093463;28;19908;-67
2022/12/30 05:50:04;;;;;;;;;;;;;;;;;;5093040;28;20417;-67
2022/12/30 05:52:30;;;;;;;;;;;;;;;;;;5095201;28;19915;-68
2022/12/30 05:54:56;;;;;;;;;;;;;;;;;;5095544;28;19916;-68
2022/12/30 05:57:22;;;;;;;;;;;;;;;;;;5094847;28;19970;-68
2022/12/30 05:59:48;;;;;;;;;;;;;;;;;;5095231;28;20357;-67
2022/12/30 06:02:14;;;;;;;;;;;;;;;;;;5095123;28;19908;-67
2022/12/30 06:04:40;;;;;;;;;;;;;;;;;;5097516;28;20268;-69
2022/12/30 06:07:06;;;;;;;;;;;;;;;;;;5097381;28;19953;-67
2022/12/30 06:09:32;;;;;;;;;;;;;;;;;;5094982;28;20294;-68
2022/12/30 06:11:58;;;;;;;;;;;;;;;;;;5094174;28;20253;-69
2022/12/30 06:14:24;;;;;;;;;;;;;;;;;;5094591;28;19920;-68
2022/12/30 06:16:50;;;;;;;;;;;;;;;;;;5093430;28;19916;-67
2022/12/30 06:19:16;;;;;;;;;;;;;;;;;;5094237;28;20011;-67
2022/12/30 06:21:42;;;;;;;;;;;;;;;;;;5093284;28;19908;-67
2022/12/30 06:24:08;;;;;;;;;;;;;;;;;;5094730;28;20345;-67
2022/12/30 06:26:33;;;;;;;;;;;;;;;;;;5093499;28;20360;-68
2022/12/30 06:28:59;;;;;;;;;;;;;;;;;;5093364;28;20344;-68
2022/12/30 06:31:26;;;;;;;;;;;;;;;;;;5094374;28;19953;-67
2022/12/30 06:33:52;;;;;;;;;;;;;;;;;;5093525;28;19953;-68
2022/12/30 06:36:18;;;;;;;;;;;;;;;;;;5093409;28;19920;-68
2022/12/30 06:38:44;;;;;;;;;;;;;;;;;;5091738;28;19912;-68
2022/12/30 06:41:09;;;;;;;;;;;;;;;;;;5093882;28;19956;-67
2022/12/30 06:43:35;;;;;;;;;;;;;;;;;;5093066;28;20291;-66
2022/12/30 06:46:01;;;;;;;;;;;;;;;;;;5093218;28;20636;-67
2022/12/30 06:48:27;;;;;;;;;;;;;;;;;;5093964;28;19908;-67
2022/12/30 06:50:53;;;;;;;;;;;;;;;;;;5092484;28;20283;-67
2022/12/30 06:53:19;;;;;;;;;;;;;;;;;;5091895;28;19919;-68
2022/12/30 06:55:45;;;;;;;;;;;;;;;;;;5093831;28;19968;-69
2022/12/30 06:58:11;;;;;;;;;;;;;;;;;;5112028;28;20077;-68
2022/12/30 07:00:37;;;;;;;;;;;;;;;;;;5110328;28;19908;-68
2022/12/30 07:03:03;;;;;;;;;;;;;;;;;;5111114;28;19912;-68
2022/12/30 07:05:29;;;;;;;;;;;;;;;;;;5110990;28;19908;-68
2022/12/30 07:07:55;;;;;;;;;;;;;;;;;;5091816;28;19908;-68
2022/12/30 07:10:22;;;;;;;;;;;;;;;;;;5092325;28;19931;-68
2022/12/30 07:12:48;;;;;;;;;;;;;;;;;;5081258;28;20019;-69
2022/12/30 07:15:14;;;;;;;;;;;;;;;;;;5074788;28;20336;-69
2022/12/30 07:17:40;;;;;;;;;;;;;;;;;;5076794;28;20404;-67
2022/12/30 07:20:09;;;;;;;;;;;;;;;;;;5077444;28;19995;-68
2022/12/30 07:22:39;;;;;;;;;;;;;;;;;;5090243;28;19915;-67
2022/12/30 07:25:05;;;;;;;;;;;;;;;;;;5089363;28;19908;-67
2022/12/30 07:27:30;;;;;;;;;;;;;;;;;;5089238;28;19912;-69
2022/12/30 07:29:56;;;;;;;;;;;;;;;;;;5093005;28;19908;-70
2022/12/30 07:32:22;;;;;;;;;;;;;;;;;;5097921;28;19914;-69
2022/12/30 07:34:48;;;;;;;;;;;;;;;;;;5109311;28;20010;-68
2022/12/30 07:37:14;;;;;;;;;;;;;;;;;;5094772;28;20621;-69
2022/12/30 07:39:40;;;;;;;;;;;;;;;;;;5085809;28;19909;-67
2022/12/30 07:42:06;;;;;;;;;;;;;;;;;;5091308;28;20401;-67
2022/12/30 07:44:32;;;;;;;;;;;;;;;;;;5092346;28;19995;-69
2022/12/30 07:46:58;;;;;;;;;;;;;;;;;;5087099;28;20191;-69
2022/12/30 07:49:24;;;;;;;;;;;;;;;;;;5080856;28;19920;-68
2022/12/30 07:51:50;;;;;;;;;;;;;;;;;;5085170;28;20432;-69
2022/12/30 07:54:16;;;;;;;;;;;;;;;;;;5088005;28;20357;-71
2022/12/30 07:56:42;;;;;;;;;;;;;;;;;;5090397;28;19908;-67
2022/12/30 07:59:08;;;;;;;;;;;;;;;;;;5094350;28;19908;-70
2022/12/30 08:01:34;;;;;;;;;;;;;;;;;;5106796;28;19908;-67
2022/12/30 08:04:00;;;;;;;;;;;;;;;;;;5076488;28;19934;-66
2022/12/30 08:06:26;;;;;;;;;;;;;;;;;;5095121;28;19919;-67
2022/12/30 08:08:52;;;;;;;;;;;;;;;;;;5095734;28;19914;-66
2022/12/30 08:11:18;;;;;;;;;;;;;;;;;;5095596;28;19908;-69
2022/12/30 08:13:44;;;;;;;;;;;;;;;;;;5094576;28;19914;-69
2022/12/30 08:16:10;;;;;;;;;;;;;;;;;;5066731;28;19916;-66
2022/12/30 08:18:36;;;;;;;;;;;;;;;;;;5076097;28;20372;-66
2022/12/30 08:21:12;;;;;;;;;;;;;;;;;;5075870;28;19909;-68
2022/12/30 08:23:42;;;;;;;;;;;;;;;;;;5096035;28;20287;-67
2022/12/30 08:26:08;;;;;;;;;;;;;;;;;;5086854;28;19915;-66
2022/12/30 08:28:37;;;;;;;;;;;;;;;;;;5075231;28;20001;-66
2022/12/30 08:31:03;;;;;;;;;;;;;;;;;;5065073;28;20369;-66
2022/12/30 08:33:29;;;;;;;;;;;;;;;;;;5049798;28;19997;-69
2022/12/30 08:35:55;;;;;;;;;;;;;;;;;;5075895;28;19924;-68
2022/12/30 08:38:21;;;;;;;;;;;;;;;;;;5052237;28;19912;-66
2022/12/30 08:40:47;;;;;;;;;;;;;;;;;;5075848;28;19935;-68
2022/12/30 08:43:13;;;;;;;;;;;;;;;;;;5053984;28;19916;-67
2022/12/30 08:45:39;;;;;;;;;;;;;;;;;;5064071;28;19962;-67
2022/12/30 08:48:05;;;;;;;;;;;;;;;;;;5075611;28;19909;-67
2022/12/30 08:50:31;;;;;;;;;;;;;;;;;;5076890;28;20273;-68
2022/12/30 08:52:57;;;;;;;;;;;;;;;;;;5057325;28;19966;-70
2022/12/30 08:55:23;;;;;;;;;;;;;;;;;;5056533;28;19916;-67
2022/12/30 08:57:49;;;;;;;;;;;;;;;;;;5052518;28;20352;-70
2022/12/30 09:00:15;;;;;;;;;;;;;;;;;;5034470;28;19913;-69
2022/12/30 09:02:41;;;;;;;;;;;;;;;;;;5072291;28;20105;-68
2022/12/30 09:05:07;;;;;;;;;;;;;;;;;;5070595;28;20003;-67
2022/12/30 09:07:34;;;;;;;;;;;;;;;;;;5061829;28;19923;-68
2022/12/30 09:09:59;;;;;;;;;;;;;;;;;;5050641;28;20327;-70
2022/12/30 09:12:25;;;;;;;;;;;;;;;;;;5034047;28;19932;-69
2022/12/30 09:14:51;;;;;;;;;;;;;;;;;;5060616;28;20347;-71
2022/12/30 09:17:17;;;;;;;;;;;;;;;;;;5071803;28;20347;-69
2022/12/30 09:19:43;;;;;;;;;;;;;;;;;;5071990;28;19912;-68
2022/12/30 09:22:09;;;;;;;;;;;;;;;;;;5070560;28;19909;-67
2022/12/30 09:24:35;;;;;;;;;;;;;;;;;;5071682;28;19909;-69
2022/12/30 09:27:01;;;;;;;;;;;;;;;;;;5074084;28;20378;-66
2022/12/30 09:29:27;;;;;;;;;;;;;;;;;;5074226;28;19908;-67
2022/12/30 09:31:53;;;;;;;;;;;;;;;;;;5075010;28;20296;-69
2022/12/30 09:34:19;;;;;;;;;;;;;;;;;;5086987;28;20350;-69
2022/12/30 09:36:45;;;;;;;;;;;;;;;;;;5114340;28;19918;-67
2022/12/30 09:39:13;;;;;;;;;;;;;;;;;;5094846;28;19951;-68
2022/12/30 09:44:23;;;;;;;;;;;;;;;;;;5095008;28;20019;-68
2022/12/30 09:46:49;;;;;;;;;;;;;;;;;;5095026;28;19909;-68
2022/12/30 09:49:15;;;;;;;;;;;;;;;;;;5093235;28;19953;-67
2022/12/30 09:51:41;;;;;;;;;;;;;;;;;;5094798;28;19943;-68
2022/12/30 09:54:07;;;;;;;;;;;;;;;;;;5094758;28;19930;-68
2022/12/30 09:56:34;;;;;;;;;;;;;;;;;;5089098;28;19967;-67
2022/12/30 09:59:00;;;;;;;;;;;;;;;;;;5093674;28;19978;-68
2022/12/30 10:01:26;;;;;;;;;;;;;;;;;;5092638;28;20374;-68
2022/12/30 10:03:52;;;;;;;;;;;;;;;;;;5098378;28;20430;-68
2022/12/30 10:06:18;;;;;;;;;;;;;;;;;;5112417;28;19946;-67
2022/12/30 10:08:44;;;;;;;;;;;;;;;;;;5092077;28;19916;-68
2022/12/30 10:11:10;;;;;;;;;;;;;;;;;;5091799;28;19974;-69
2022/12/30 10:13:36;;;;;;;;;;;;;;;;;;5086542;28;19916;-67
2022/12/30 10:16:02;;;;;;;;;;;;;;;;;;5090662;28;19966;-68
2022/12/30 10:18:28;;;;;;;;;;;;;;;;;;5092682;28;19919;-68
2022/12/30 10:20:54;;;;;;;;;;;;;;;;;;5092393;28;19912;-68
2022/12/30 10:23:20;;;;;;;;;;;;;;;;;;5091996;28;19908;-67
2022/12/30 10:25:46;;;;;;;;;;;;;;;;;;5092794;28;20007;-66
2022/12/30 10:28:12;;;;;;;;;;;;;;;;;;5092279;28;19916;-69
2022/12/30 10:30:38;;;;;;;;;;;;;;;;;;5081071;28;20377;-67
2022/12/30 10:33:04;;;;;;;;;;;;;;;;;;5075124;28;19935;-69
2022/12/30 10:35:29;;;;;;;;;;;;;;;;;;5088255;28;19916;-68
2022/12/30 10:37:55;;;;;;;;;;;;;;;;;;5074371;28;19940;-70
2022/12/30 10:40:21;;;;;;;;;;;;;;;;;;5073904;28;20311;-68
2022/12/30 10:42:47;;;;;;;;;;;;;;;;;;5072420;28;20365;-69
2022/12/30 10:45:13;;;;;;;;;;;;;;;;;;5073624;28;20371;-70
2022/12/30 10:47:39;;;;;;;;;;;;;;;;;;5073774;28;20364;-69
2022/12/30 10:50:05;;;;;;;;;;;;;;;;;;5073782;28;19999;-69
2022/12/30 10:52:31;;;;;;;;;;;;;;;;;;5072408;28;19909;-68
2022/12/30 10:54:58;;;;;;;;;;;;;;;;;;5073566;28;19920;-68
2022/12/30 10:57:24;;;;;;;;;;;;;;;;;;5073668;28;19908;-71
2022/12/30 10:59:50;;;;;;;;;;;;;;;;;;5073161;28;19915;-68
2022/12/30 11:02:16;;;;;;;;;;;;;;;;;;5073650;28;19909;-68
2022/12/30 11:04:42;;;;;;;;;;;;;;;;;;5073635;28;19999;-69
2022/12/30 11:07:08;;;;;;;;;;;;;;;;;;5084410;28;19999;-67
2022/12/30 11:09:34;;;;;;;;;;;;;;;;;;5093843;28;19914;-67
2022/12/30 11:14:45;;;;;;;;;;;;;;;;;;5089983;28;20085;-68
2022/12/30 11:17:11;;;;;;;;;;;;;;;;;;5091985;28;20075;-68
2022/12/30 11:19:37;;;;;;;;;;;;;;;;;;5092421;28;19908;-67
2022/12/30 11:22:03;;;;;;;;;;;;;;;;;;5093494;28;19916;-68
2022/12/30 11:24:28;;;;;;;;;;;;;;;;;;5092579;28;19908;-68
2022/12/30 11:26:54;;;;;;;;;;;;;;;;;;5093704;28;19914;-68
2022/12/30 11:29:20;;;;;;;;;;;;;;;;;;5092363;28;19958;-68
2022/12/30 11:31:47;;;;;;;;;;;;;;;;;;5092597;28;19908;-68
2022/12/30 11:34:13;;;;;;;;;;;;;;;;;;5095479;28;19943;-67
2022/12/30 11:36:39;;;;;;;;;;;;;;;;;;5095850;28;19955;-67
2022/12/30 11:39:05;;;;;;;;;;;;;;;;;;5095788;28;19908;-68
2022/12/30 11:41:31;;;;;;;;;;;;;;;;;;5095726;28;19916;-68
2022/12/30 11:43:57;;;;;;;;;;;;;;;;;;5095910;28;20014;-68
2022/12/30 11:46:23;;;;;;;;;;;;;;;;;;5097329;28;19919;-68
2022/12/30 11:48:49;;;;;;;;;;;;;;;;;;5097053;28;19908;-68
2022/12/30 11:51:15;;;;;;;;;;;;;;;;;;5097446;28;19908;-68
2022/12/30 11:53:41;;;;;;;;;;;;;;;;;;5097725;28;19973;-69
2022/12/30 11:56:07;;;;;;;;;;;;;;;;;;5097247;28;20328;-68
2022/12/30 11:58:32;;;;;;;;;;;;;;;;;;5097580;28;20352;-67
2022/12/30 12:00:58;;;;;;;;;;;;;;;;;;5097505;28;19908;-68
2022/12/30 12:03:24;;;;;;;;;;;;;;;;;;5097132;28;20096;-68
2022/12/30 12:05:50;;;;;;;;;;;;;;;;;;5097375;28;19908;-67
2022/12/30 12:08:16;;;;;;;;;;;;;;;;;;5096128;28;20371;-68
2022/12/30 12:10:42;;;;;;;;;;;;;;;;;;5097064;28;19923;-68
2022/12/30 12:13:08;;;;;;;;;;;;;;;;;;5097280;28;19915;-67
2022/12/30 12:15:34;;;;;;;;;;;;;;;;;;5097112;28;20368;-68
2022/12/30 12:18:00;;;;;;;;;;;;;;;;;;5096808;28;19908;-68
2022/12/30 12:20:26;;;;;;;;;;;;;;;;;;5097338;28;19912;-68
2022/12/30 12:22:52;;;;;;;;;;;;;;;;;;5097007;28;20357;-68
2022/12/30 12:25:18;;;;;;;;;;;;;;;;;;5096691;28;19950;-68
2022/12/30 12:27:44;;;;;;;;;;;;;;;;;;5095647;28;19912;-68
2022/12/30 12:30:10;;;;;;;;;;;;;;;;;;5095832;28;19908;-68
2022/12/30 12:32:36;;;;;;;;;;;;;;;;;;5096442;28;19912;-67
2022/12/30 12:35:02;;;;;;;;;;;;;;;;;;5097079;28;19916;-68
2022/12/30 12:38:15;;;;;;;;;;;;;;;;;;5111889;27;19918;-67
2022/12/30 12:42:37;;;;;;;;;;;;;;;;;;5112092;27;19918;-68
2022/12/30 12:45:03;;;;;;;;;;;;;;;;;;5111320;28;19990;-69
2022/12/30 12:47:28;;;;;;;;;;;;;;;;;;5111664;28;19912;-68
2022/12/30 12:49:54;;;;;;;;;;;;;;;;;;5110442;28;19912;-68
2022/12/30 12:54:41;;;;;;;;;;;;;;;;;;5112060;27;19922;-68
2022/12/30 12:57:54;;;;;;;;;;;;;;;;;;5091752;27;19923;-68
2022/12/30 13:04:03;;;;;;;;;;;;;;;;;;5111947;27;20299;-69
2022/12/30 13:06:29;;;;;;;;;;;;;;;;;;5110153;28;20007;-68
2022/12/30 13:08:55;;;;;;;;;;;;;;;;;;5110443;28;20357;-69
2022/12/30 13:11:21;;;;;;;;;;;;;;;;;;5110391;28;19908;-68
2022/12/30 13:13:47;;;;;;;;;;;;;;;;;;5109910;28;20007;-68
2022/12/30 13:16:13;;;;;;;;;;;;;;;;;;5111903;28;19912;-67
2022/12/30 13:19:59;;;;;;;;;;;;;;;;;;5091567;27;19919;-67
2022/12/30 13:24:21;;;;;;;;;;;;;;;;;;5112294;27;19938;-68
2022/12/30 13:26:47;;;;;;;;;;;;;;;;;;5111347;28;19912;-68
2022/12/30 13:29:13;;;;;;;;;;;;;;;;;;5111696;28;19914;-68
2022/12/30 13:31:39;;;;;;;;;;;;;;;;;;5112078;28;19908;-67
2022/12/30 13:34:35;;;;;;;;;;;;;;;;;;5091371;27;19922;-66
2022/12/30 13:39:07;;;;;;;;;;;;;;;;;;5091995;27;19922;-68
2022/12/30 13:42:27;;;;;;;;;;;;;;;;;;5091213;27;19919;-68
2022/12/30 13:45:14;;;;;;;;;;;;;;;;;;5112143;27;19923;-67
2022/12/30 13:49:45;;;;;;;;;;;;;;;;;;5111470;27;20384;-67
2022/12/30 13:55:06;;;;;;;;;;;;;;;;;;5103436;27;19917;-68
2022/12/30 13:57:32;;;;;;;;;;;;;;;;;;5069933;28;20004;-68
2022/12/30 14:02:01;;;;;;;;;;;;;;;;;;5173850;27;19911;-69
2022/12/30 14:04:27;;;;;;;;;;;;;;;;;;5173814;27;19911;-68
2022/12/30 14:06:53;;;;;;;;;;;;;;;;;;5173911;27;19997;-68
2022/12/30 14:10:12;;;;;;;;;;;;;;;;;;5111680;27;19922;-68
2022/12/30 14:12:38;;;;;;;;;;;;;;;;;;5111928;28;20010;-68
2022/12/30 14:15:28;;;;;;;;;;;;;;;;;;5112305;27;19919;-68
2022/12/30 14:21:29;;;;;;;;;;;;;;;;;;5112242;27;19915;-67
2022/12/30 14:23:56;;;;;;;;;;;;;;;;;;5111390;28;20003;-67
2022/12/30 14:26:37;;;;;;;;;;;;;;;;;;5112152;27;19923;-68
2022/12/30 14:29:36;;;;;;;;;;;;;;;;;;5112644;27;19916;-69
2022/12/30 14:33:50;;;;;;;;;;;;;;;;;;5112571;27;19916;-68
2022/12/30 14:36:17;;;;;;;;;;;;;;;;;;5111975;28;20011;-68
2022/12/30 14:38:42;;;;;;;;;;;;;;;;;;5109996;28;20280;-68
2022/12/30 14:41:08;;;;;;;;;;;;;;;;;;5110387;28;19914;-69
2022/12/30 14:44:46;;;;;;;;;;;;;;;;;;5152705;27;19915;-67
2022/12/30 14:47:12;;;;;;;;;;;;;;;;;;5134460;27;20370;-67
2022/12/30 14:53:00;;;;;;;;;;;;;;;;;;5111324;27;19919;-68
2022/12/30 14:55:26;;;;;;;;;;;;;;;;;;5111768;28;19999;-69
2022/12/30 14:57:52;;;;;;;;;;;;;;;;;;5111607;28;19986;-68
2022/12/30 15:00:18;;;;;;;;;;;;;;;;;;5111334;28;19966;-68
2022/12/30 15:02:44;;;;;;;;;;;;;;;;;;5110264;28;19908;-68
2022/12/30 15:05:10;;;;;;;;;;;;;;;;;;5111148;28;19909;-68
2022/12/30 15:07:36;;;;;;;;;;;;;;;;;;5110259;28;19908;-68
2022/12/30 15:10:02;;;;;;;;;;;;;;;;;;5111481;28;19908;-68
2022/12/30 15:12:28;;;;;;;;;;;;;;;;;;5110930;28;19920;-67
2022/12/30 15:14:54;;;;;;;;;;;;;;;;;;5111342;28;19908;-68
2022/12/30 15:17:20;;;;;;;;;;;;;;;;;;5111298;28;19908;-68
2022/12/30 15:19:46;;;;;;;;;;;;;;;;;;5110857;28;19996;-68
2022/12/30 15:22:12;;;;;;;;;;;;;;;;;;5109837;28;19931;-68
2022/12/30 15:24:38;;;;;;;;;;;;;;;;;;5111103;28;20400;-67
2022/12/30 15:27:04;;;;;;;;;;;;;;;;;;5110805;28;19915;-68
2022/12/30 15:29:30;;;;;;;;;;;;;;;;;;5111222;28;20417;-68
2022/12/30 15:31:57;;;;;;;;;;;;;;;;;;5110985;28;19916;-68
2022/12/30 15:34:22;;;;;;;;;;;;;;;;;;5109592;28;19915;-69
2022/12/30 15:36:48;;;;;;;;;;;;;;;;;;5110956;28;19916;-69
2022/12/30 15:39:14;;;;;;;;;;;;;;;;;;5110929;28;19956;-68
2022/12/30 15:41:40;;;;;;;;;;;;;;;;;;5109168;28;19908;-67
2022/12/30 15:44:06;;;;;;;;;;;;;;;;;;5110773;28;19908;-67
2022/12/30 15:46:32;;;;;;;;;;;;;;;;;;5110835;28;19946;-67
2022/12/30 15:48:58;;;;;;;;;;;;;;;;;;5110247;28;20321;-67
2022/12/30 15:51:24;;;;;;;;;;;;;;;;;;5110789;28;20383;-67
2022/12/30 15:53:50;;;;;;;;;;;;;;;;;;5109303;28;20262;-68
2022/12/30 15:56:16;;;;;;;;;;;;;;;;;;5110138;28;19908;-68
2022/12/30 15:58:42;;;;;;;;;;;;;;;;;;5110517;28;19908;-68
2022/12/30 16:01:08;;;;;;;;;;;;;;;;;;5110515;28;19912;-68
2022/12/30 16:03:34;;;;;;;;;;;;;;;;;;5100561;28;19943;-68
2022/12/30 16:06:00;;;;;;;;;;;;;;;;;;5097052;28;19909;-69
2022/12/30 16:08:26;;;;;;;;;;;;;;;;;;5096706;28;19947;-69
2022/12/30 16:10:52;;;;;;;;;;;;;;;;;;5096721;28;19912;-69
2022/12/30 16:13:17;;;;;;;;;;;;;;;;;;5096611;28;20003;-69
2022/12/30 16:15:44;;;;;;;;;;;;;;;;;;5096294;28;19935;-68
2022/12/30 16:18:10;;;;;;;;;;;;;;;;;;5096633;28;19939;-68
2022/12/30 16:20:36;;;;;;;;;;;;;;;;;;5096570;28;19990;-68
2022/12/30 16:23:02;;;;;;;;;;;;;;;;;;5096088;28;20459;-68
2022/12/30 16:25:28;;;;;;;;;;;;;;;;;;5095173;28;19912;-69
2022/12/30 16:27:54;;;;;;;;;;;;;;;;;;5096420;28;19908;-68
2022/12/30 16:30:20;;;;;;;;;;;;;;;;;;5094684;28;19909;-67
2022/12/30 16:32:46;;;;;;;;;;;;;;;;;;5094941;28;19916;-69
2022/12/30 16:35:12;;;;;;;;;;;;;;;;;;5095001;28;19908;-69
2022/12/30 16:37:38;;;;;;;;;;;;;;;;;;5096021;28;20379;-68
2022/12/30 16:40:04;;;;;;;;;;;;;;;;;;5096270;28;20042;-68
2022/12/30 16:42:30;;;;;;;;;;;;;;;;;;5096193;28;19962;-68
2022/12/30 16:44:56;;;;;;;;;;;;;;;;;;5095745;28;19908;-69
2022/12/30 16:47:22;;;;;;;;;;;;;;;;;;5096080;28;20319;-69
2022/12/30 16:49:48;;;;;;;;;;;;;;;;;;5094768;28;19919;-67
2022/12/30 16:52:14;;;;;;;;;;;;;;;;;;5095364;28;19920;-68
2022/12/30 16:54:40;;;;;;;;;;;;;;;;;;5094708;28;19912;-68
2022/12/30 16:57:06;;;;;;;;;;;;;;;;;;5094725;28;19912;-69
2022/12/30 16:59:32;;;;;;;;;;;;;;;;;;5095530;28;19909;-69
2022/12/30 17:01:58;;;;;;;;;;;;;;;;;;5095975;28;19912;-69
2022/12/30 17:04:24;;;;;;;;;;;;;;;;;;5095733;28;19908;-69
2022/12/30 17:06:50;;;;;;;;;;;;;;;;;;5095306;28;19995;-68
2022/12/30 17:10:52;;;;;;;;;;;;;;;;;;5094365;28;19930;-68
2022/12/30 17:12:01;;;;;;;;;;;;;;;;;;5095074;28;19985;-68
2022/12/30 17:14:28;;;;;;;;;;;;;;;;;;5094581;28;20330;-69
2022/12/30 17:16:54;;;;;;;;;;;;;;;;;;5095494;28;19930;-69
2022/12/30 17:19:20;;;;;;;;;;;;;;;;;;5095377;28;20427;-69
2022/12/30 17:21:46;;;;;;;;;;;;;;;;;;5095528;28;20364;-68
2022/12/30 17:24:12;;;;;;;;;;;;;;;;;;5094063;28;19908;-69
2022/12/30 17:26:38;;;;;;;;;;;;;;;;;;5094957;28;19919;-69
2022/12/30 17:29:04;;;;;;;;;;;;;;;;;;5095341;28;20372;-68
2022/12/30 17:31:30;;;;;;;;;;;;;;;;;;5095146;28;20326;-69
2022/12/30 17:33:56;;;;;;;;;;;;;;;;;;5094740;28;20353;-69
2022/12/30 17:36:22;;;;;;;;;;;;;;;;;;5094197;28;19926;-69
2022/12/30 17:38:49;;;;;;;;;;;;;;;;;;5095065;28;19923;-69
2022/12/30 17:41:15;;;;;;;;;;;;;;;;;;5094670;28;19908;-68
2022/12/30 17:43:41;;;;;;;;;;;;;;;;;;5095038;28;19908;-68
2022/12/30 17:46:07;;;;;;;;;;;;;;;;;;5094930;28;19908;-69
2022/12/30 17:48:32;;;;;;;;;;;;;;;;;;5094501;28;19998;-69
2022/12/30 17:50:58;;;;;;;;;;;;;;;;;;5094699;28;20010;-69
2022/12/30 17:53:24;;;;;;;;;;;;;;;;;;5094749;28;19908;-68
2022/12/30 17:55:50;;;;;;;;;;;;;;;;;;5094357;28;19915;-69
2022/12/30 17:58:16;;;;;;;;;;;;;;;;;;5094699;28;19965;-69
2022/12/30 18:00:42;;;;;;;;;;;;;;;;;;5094662;28;20438;-68
2022/12/30 18:03:08;;;;;;;;;;;;;;;;;;5092850;28;19948;-69
2022/12/30 18:05:34;;;;;;;;;;;;;;;;;;5094283;28;19930;-69
2022/12/30 18:08:00;;;;;;;;;;;;;;;;;;5092093;28;19908;-69
2022/12/30 18:10:26;;;;;;;;;;;;;;;;;;5092654;28;19908;-69
2022/12/30 18:12:52;;;;;;;;;;;;;;;;;;5092682;28;20361;-69